createdAt,value
2018-03-17T00:00:10.620Z,7.08
2018-03-17T00:02:38.914Z,7.00
2018-03-17T00:05:07.192Z,7.03
2018-03-17T00:07:35.463Z,6.96
2018-03-17T00:10:03.747Z,7.02
2018-03-17T00:12:32.762Z,6.92
2018-03-17T00:15:01.805Z,7.01
2018-03-17T00:17:30.297Z,6.86
2018-03-17T00:20:02.367Z,7.00
2018-03-17T00:22:30.661Z,6.93
2018-03-17T00:24:58.921Z,6.84
2018-03-17T00:27:27.340Z,6.95
2018-03-17T00:29:55.666Z,6.90
2018-03-17T00:32:23.959Z,6.98
2018-03-17T00:34:52.259Z,6.94
2018-03-17T00:37:20.558Z,7.03
2018-03-17T00:39:49.838Z,7.05
2018-03-17T00:42:19.009Z,6.96
2018-03-17T00:44:47.368Z,7.03
2018-03-17T00:47:15.644Z,6.88
2018-03-17T00:49:43.915Z,6.82
2018-03-17T00:52:12.172Z,6.81
2018-03-17T00:54:40.526Z,6.78
2018-03-17T00:57:08.777Z,6.78
2018-03-17T00:59:37.880Z,6.55
2018-03-17T01:02:06.159Z,6.49
2018-03-17T01:04:35.417Z,6.63
2018-03-17T01:07:03.761Z,6.67
2018-03-17T01:09:32.070Z,6.51
2018-03-17T01:12:00.405Z,6.47
2018-03-17T01:14:28.701Z,6.38
2018-03-17T01:16:57.023Z,6.53
2018-03-17T01:19:26.080Z,6.52
2018-03-17T01:21:54.335Z,6.64
2018-03-17T01:24:22.634Z,6.35
2018-03-17T01:26:51.013Z,6.39
2018-03-17T01:29:19.320Z,6.26
2018-03-17T01:31:48.369Z,6.47
2018-03-17T01:34:17.048Z,6.31
2018-03-17T01:36:45.429Z,6.26
2018-03-17T01:39:13.909Z,6.28
2018-03-17T01:41:42.387Z,6.26
2018-03-17T01:44:10.920Z,6.15
2018-03-17T01:46:39.959Z,6.14
2018-03-17T01:49:08.855Z,6.24
2018-03-17T01:51:37.132Z,6.14
2018-03-17T01:54:23.431Z,6.11
2018-03-17T01:56:51.696Z,6.01
2018-03-17T01:59:20.088Z,6.10
2018-03-17T02:01:48.548Z,6.00
2018-03-17T02:04:16.810Z,6.13
2018-03-17T02:06:45.081Z,6.27
2018-03-17T02:09:13.344Z,6.28
2018-03-17T02:11:42.380Z,6.24
2018-03-17T02:14:10.723Z,6.07
2018-03-17T02:16:38.996Z,5.97
2018-03-17T02:19:07.280Z,5.99
2018-03-17T02:21:35.600Z,6.10
2018-03-17T02:24:03.942Z,5.98
2018-03-17T02:26:32.227Z,5.84
2018-03-17T02:29:00.500Z,5.72
2018-03-17T02:31:29.859Z,5.77
2018-03-17T02:33:58.694Z,5.96
2018-03-17T02:36:27.152Z,6.11
2018-03-17T02:38:55.472Z,5.93
2018-03-17T02:41:23.709Z,5.74
2018-03-17T02:43:58.818Z,5.71
2018-03-17T02:46:27.878Z,5.75
2018-03-17T02:48:56.200Z,5.89
2018-03-17T02:51:24.874Z,5.76
2018-03-17T02:53:53.923Z,5.69
2018-03-17T02:56:22.178Z,5.63
2018-03-17T02:58:50.443Z,5.59
2018-03-17T03:03:53.335Z,5.72
2018-03-17T03:06:21.627Z,5.84
2018-03-17T03:08:49.904Z,5.41
2018-03-17T03:11:18.161Z,5.52
2018-03-17T03:13:46.438Z,5.41
2018-03-17T03:16:14.780Z,5.60
2018-03-17T03:18:43.931Z,5.60
2018-03-17T03:21:12.299Z,5.64
2018-03-17T03:23:40.769Z,5.53
2018-03-17T03:26:09.055Z,5.75
2018-03-17T03:28:37.421Z,5.86
2018-03-17T03:31:05.695Z,5.51
2018-03-17T03:33:33.958Z,5.50
2018-03-17T03:36:02.262Z,5.52
2018-03-17T03:38:30.525Z,5.50
2018-03-17T03:40:58.901Z,5.52
2018-03-17T03:43:27.142Z,5.53
2018-03-17T03:45:56.223Z,5.48
2018-03-17T03:48:24.498Z,5.34
2018-03-17T03:50:54.035Z,5.43
2018-03-17T03:53:22.398Z,5.16
2018-03-17T03:55:51.456Z,5.12
2018-03-17T03:58:19.719Z,5.22
2018-03-17T04:00:47.987Z,5.15
2018-03-17T04:03:16.407Z,5.09
2018-03-17T04:05:45.460Z,5.13
2018-03-17T04:08:13.731Z,5.12
2018-03-17T04:10:42.036Z,5.21
2018-03-17T04:13:10.296Z,5.12
2018-03-17T04:15:38.581Z,5.03
2018-03-17T04:18:06.838Z,5.04
2018-03-17T04:20:35.111Z,4.92
2018-03-17T04:23:03.356Z,4.90
2018-03-17T04:25:31.633Z,5.16
2018-03-17T04:27:59.895Z,4.91
2018-03-17T04:30:28.276Z,4.83
2018-03-17T04:32:56.532Z,4.80
2018-03-17T04:35:25.605Z,5.05
2018-03-17T04:37:53.868Z,5.20
2018-03-17T04:40:22.114Z,5.06
2018-03-17T04:42:50.413Z,4.96
2018-03-17T04:45:18.684Z,5.01
2018-03-17T04:47:46.992Z,4.94
2018-03-17T04:50:16.062Z,4.81
2018-03-17T04:52:44.366Z,4.91
2018-03-17T04:55:13.396Z,4.83
2018-03-17T04:57:41.667Z,5.07
2018-03-17T05:00:09.948Z,5.13
2018-03-17T05:02:38.232Z,5.10
2018-03-17T05:05:06.496Z,5.16
2018-03-17T05:07:35.332Z,5.31
2018-03-17T05:10:03.596Z,5.03
2018-03-17T05:12:31.858Z,4.84
2018-03-17T05:15:00.168Z,4.79
2018-03-17T05:17:28.439Z,4.85
2018-03-17T05:19:57.485Z,4.67
2018-03-17T05:22:25.759Z,4.72
2018-03-17T05:24:54.042Z,4.55
2018-03-17T05:27:22.300Z,4.47
2018-03-17T05:29:51.419Z,4.53
2018-03-17T05:32:19.677Z,4.46
2018-03-17T05:34:47.970Z,4.52
2018-03-17T05:37:16.322Z,4.57
2018-03-17T05:39:44.598Z,4.49
2018-03-17T05:42:12.887Z,4.14
2018-03-17T05:44:41.151Z,4.26
2018-03-17T05:47:09.537Z,4.20
2018-03-17T05:49:37.801Z,4.44
2018-03-17T05:52:06.083Z,4.30
2018-03-17T05:54:34.486Z,4.53
2018-03-17T05:57:03.533Z,4.32
2018-03-17T05:59:31.833Z,4.40
2018-03-17T06:02:00.187Z,4.20
2018-03-17T06:04:29.226Z,4.70
2018-03-17T06:06:57.488Z,4.84
2018-03-17T06:09:25.743Z,4.68
2018-03-17T06:11:54.057Z,4.91
2018-03-17T06:14:22.308Z,4.67
2018-03-17T06:16:50.577Z,4.51
2018-03-17T06:19:18.826Z,4.65
2018-03-17T06:21:47.148Z,4.49
2018-03-17T06:24:15.397Z,4.62
2018-03-17T06:26:43.651Z,4.49
2018-03-17T06:29:12.184Z,4.48
2018-03-17T06:31:40.530Z,4.63
2018-03-17T06:34:08.814Z,4.57
2018-03-17T06:36:37.172Z,4.48
2018-03-17T06:39:05.463Z,4.35
2018-03-17T06:41:34.132Z,4.65
2018-03-17T06:44:02.443Z,4.43
2018-03-17T06:46:30.892Z,4.72
2018-03-17T06:48:59.168Z,4.39
2018-03-17T06:51:27.457Z,4.07
2018-03-17T06:53:55.732Z,4.02
2018-03-17T06:56:24.029Z,3.95
2018-03-17T06:58:52.276Z,3.95
2018-03-17T07:01:20.559Z,4.29
2018-03-17T07:03:48.923Z,3.96
2018-03-17T07:06:17.216Z,3.77
2018-03-17T07:08:45.517Z,3.77
2018-03-17T07:11:13.816Z,4.25
2018-03-17T07:13:42.136Z,3.99
2018-03-17T07:16:10.743Z,3.65
2018-03-17T07:18:39.080Z,3.71
2018-03-17T07:21:07.381Z,3.59
2018-03-17T07:23:35.645Z,3.71
2018-03-17T07:26:03.980Z,3.91
2018-03-17T07:28:32.241Z,3.78
2018-03-17T07:31:00.538Z,3.93
2018-03-17T07:33:28.804Z,4.24
2018-03-17T07:35:57.861Z,3.92
2018-03-17T07:38:27.572Z,3.77
2018-03-17T07:40:55.919Z,3.75
2018-03-17T07:43:24.535Z,3.98
2018-03-17T07:45:52.934Z,4.02
2018-03-17T07:48:22.044Z,4.10
2018-03-17T07:50:50.506Z,4.07
2018-03-17T07:53:19.562Z,4.25
2018-03-17T07:55:47.851Z,4.48
2018-03-17T07:58:16.877Z,4.18
2018-03-17T08:00:45.949Z,3.98
2018-03-17T08:03:14.399Z,3.81
2018-03-17T08:05:42.696Z,3.90
2018-03-17T08:08:12.163Z,3.94
2018-03-17T08:10:40.426Z,4.09
2018-03-17T08:13:08.736Z,3.90
2018-03-17T08:15:37.141Z,3.81
2018-03-17T08:18:06.464Z,3.96
2018-03-17T08:20:35.587Z,3.70
2018-03-17T08:23:03.928Z,3.60
2018-03-17T08:25:32.995Z,3.38
2018-03-17T08:28:01.334Z,3.50
2018-03-17T08:30:29.635Z,3.45
2018-03-17T08:32:57.915Z,3.60
2018-03-17T08:35:26.216Z,3.78
2018-03-17T08:37:55.390Z,3.90
2018-03-17T08:40:23.766Z,3.92
2018-03-17T08:42:52.108Z,3.73
2018-03-17T08:45:20.418Z,3.89
2018-03-17T08:47:48.942Z,3.75
2018-03-17T08:50:17.964Z,3.75
2018-03-17T08:52:46.240Z,3.85
2018-03-17T08:55:14.535Z,3.78
2018-03-17T08:57:44.281Z,3.51
2018-03-17T09:00:12.900Z,3.74
2018-03-17T09:02:41.203Z,3.83
2018-03-17T09:05:09.608Z,3.66
2018-03-17T09:07:37.919Z,3.80
2018-03-17T09:10:06.652Z,3.59
2018-03-17T09:12:35.011Z,3.53
2018-03-17T09:15:03.342Z,3.67
2018-03-17T09:17:31.672Z,3.56
2018-03-17T09:20:00.807Z,3.46
2018-03-17T09:22:29.255Z,3.41
2018-03-17T09:24:57.627Z,3.56
2018-03-17T09:27:26.688Z,3.41
2018-03-17T09:29:55.253Z,3.50
2018-03-17T09:32:23.853Z,3.53
2018-03-17T09:34:52.764Z,3.68
2018-03-17T09:37:21.290Z,3.67
2018-03-17T09:39:50.306Z,3.65
2018-03-17T09:42:19.312Z,3.54
2018-03-17T09:44:47.899Z,3.54
2018-03-17T09:47:16.330Z,3.40
2018-03-17T09:49:45.397Z,3.55
2018-03-17T09:52:13.841Z,3.68
2018-03-17T09:54:42.416Z,3.87
2018-03-17T09:57:10.898Z,3.78
2018-03-17T09:59:39.277Z,3.73
2018-03-17T10:02:07.617Z,3.90
2018-03-17T10:04:36.758Z,3.67
2018-03-17T10:07:05.243Z,3.77
2018-03-17T10:09:34.445Z,3.64
2018-03-17T10:12:03.644Z,3.53
2018-03-17T10:14:31.915Z,3.65
2018-03-17T10:17:01.013Z,3.66
2018-03-17T10:19:29.319Z,3.79
2018-03-17T10:21:57.599Z,3.85
2018-03-17T10:24:26.656Z,3.66
2018-03-17T10:26:54.997Z,3.69
2018-03-17T10:29:23.451Z,3.75
2018-03-17T10:31:51.677Z,3.78
2018-03-17T10:34:19.974Z,3.62
2018-03-17T10:36:48.271Z,3.15
2018-03-17T10:39:17.319Z,3.40
2018-03-17T10:41:45.586Z,3.61
2018-03-17T10:44:14.059Z,3.52
2018-03-17T10:46:42.325Z,3.61
2018-03-17T10:49:10.649Z,3.72
2018-03-17T10:51:39.659Z,3.81
2018-03-17T10:54:08.008Z,3.61
2018-03-17T10:56:36.272Z,3.67
2018-03-17T10:59:04.571Z,3.51
2018-03-17T11:01:38.504Z,3.67
2018-03-17T11:04:07.588Z,3.74
2018-03-17T11:06:36.296Z,3.80
2018-03-17T11:09:05.177Z,3.86
2018-03-17T11:11:34.430Z,3.80
2018-03-17T11:14:02.687Z,3.26
2018-03-17T11:16:31.163Z,3.60
2018-03-17T11:18:59.459Z,3.71
2018-03-17T11:21:27.963Z,3.54
2018-03-17T11:23:57.339Z,3.70
2018-03-17T11:26:25.706Z,3.83
2018-03-17T11:28:53.971Z,4.03
2018-03-17T11:31:22.458Z,3.94
2018-03-17T11:33:51.303Z,4.00
2018-03-17T11:36:21.173Z,4.14
2018-03-17T11:38:49.746Z,4.27
2018-03-17T11:41:18.035Z,4.13
2018-03-17T11:43:46.349Z,4.08
2018-03-17T11:46:15.391Z,4.14
2018-03-17T11:48:43.763Z,4.20
2018-03-17T11:51:12.073Z,4.12
2018-03-17T11:53:40.413Z,3.99
2018-03-17T11:56:08.767Z,4.09
2018-03-17T11:58:37.480Z,4.06
2018-03-17T12:01:05.970Z,4.15
2018-03-17T12:03:34.265Z,4.18
2018-03-17T12:06:02.876Z,4.12
2018-03-17T12:08:32.006Z,4.01
2018-03-17T12:11:00.291Z,4.14
2018-03-17T12:13:28.596Z,4.13
2018-03-17T12:15:56.866Z,3.70
2018-03-17T12:18:25.173Z,3.73
2018-03-17T12:20:54.199Z,3.81
2018-03-17T12:23:22.502Z,3.73
2018-03-17T12:25:50.774Z,3.75
2018-03-17T12:28:19.084Z,3.80
2018-03-17T12:30:48.158Z,3.92
2018-03-17T12:33:16.498Z,3.65
2018-03-17T12:35:44.751Z,3.65
2018-03-17T12:38:13.073Z,3.56
2018-03-17T12:40:41.949Z,3.36
2018-03-17T12:43:11.114Z,3.54
2018-03-17T12:45:40.157Z,3.47
2018-03-17T12:48:08.753Z,3.35
2018-03-17T12:50:38.025Z,3.32
2018-03-17T12:53:06.661Z,3.23
2018-03-17T12:55:35.733Z,3.36
2018-03-17T12:58:04.372Z,3.25
2018-03-17T13:00:33.108Z,3.25
2018-03-17T13:03:02.329Z,3.25
2018-03-17T13:05:31.182Z,3.26
2018-03-17T13:08:00.167Z,3.14
2018-03-17T13:10:28.747Z,3.28
2018-03-17T13:12:57.413Z,2.94
2018-03-17T13:15:26.854Z,2.87
2018-03-17T13:17:56.538Z,3.06
2018-03-17T13:20:25.031Z,3.15
2018-03-17T13:23:11.108Z,3.70
2018-03-17T13:25:40.552Z,3.10
2018-03-17T13:28:28.548Z,3.14
2018-03-17T13:30:57.169Z,3.10
2018-03-17T13:33:25.977Z,3.10
2018-03-17T13:36:12.267Z,2.97
2018-03-17T13:38:41.076Z,2.85
2018-03-17T13:41:11.008Z,2.97
2018-03-17T13:43:40.184Z,2.99
2018-03-17T13:46:08.605Z,2.99
2018-03-17T13:48:37.711Z,2.98
2018-03-17T13:51:06.369Z,3.00
2018-03-17T13:53:35.207Z,2.87
2018-03-17T13:56:04.747Z,2.76
2018-03-17T13:58:34.783Z,2.82
2018-03-17T14:01:04.377Z,2.84
2018-03-17T14:03:33.000Z,2.80
2018-03-17T14:06:03.003Z,2.91
2018-03-17T14:08:31.841Z,2.94
2018-03-17T14:11:01.520Z,2.72
2018-03-17T14:13:30.923Z,2.83
2018-03-17T14:16:00.365Z,2.64
2018-03-17T14:21:04.484Z,2.61
2018-03-17T14:23:35.472Z,2.62
2018-03-17T14:26:04.712Z,2.43
2018-03-17T14:28:33.408Z,2.60
2018-03-17T14:31:02.246Z,2.55
2018-03-17T14:33:31.592Z,2.61
2018-03-17T14:36:01.772Z,2.43
2018-03-17T14:38:31.244Z,2.23
2018-03-17T14:41:00.943Z,2.36
2018-03-17T14:43:30.809Z,2.30
2018-03-17T14:46:00.090Z,2.60
2018-03-17T14:48:28.527Z,2.49
2018-03-17T14:50:57.508Z,2.44
2018-03-17T14:53:26.417Z,2.26
2018-03-17T14:55:56.218Z,2.24
2018-03-17T14:58:30.843Z,2.33
2018-03-17T15:01:00.607Z,2.28
2018-03-17T15:03:29.871Z,2.24
2018-03-17T15:06:00.200Z,2.07
2018-03-17T15:08:29.618Z,2.20
2018-03-17T15:10:59.599Z,2.26
2018-03-17T15:13:29.640Z,2.23
2018-03-17T15:15:57.995Z,2.22
2018-03-17T15:18:27.668Z,2.07
2018-03-17T15:20:57.471Z,2.11
2018-03-17T15:23:27.984Z,1.94
2018-03-17T15:25:56.682Z,2.21
2018-03-17T15:28:25.219Z,2.13
2018-03-17T15:30:53.723Z,2.02
2018-03-17T15:33:23.825Z,2.04
2018-03-17T15:35:56.388Z,2.05
2018-03-17T15:38:26.125Z,2.02
2018-03-17T15:40:55.580Z,2.01
2018-03-17T15:43:25.422Z,2.24
2018-03-17T15:45:55.378Z,1.90
2018-03-17T15:48:25.048Z,1.94
2018-03-17T15:50:54.176Z,1.91
2018-03-17T15:53:22.678Z,1.88
2018-03-17T15:55:51.741Z,2.04
2018-03-17T15:58:22.584Z,1.76
2018-03-17T16:00:51.262Z,1.65
2018-03-17T16:03:20.445Z,1.72
2018-03-17T16:05:49.962Z,1.98
2018-03-17T16:08:18.488Z,1.86
2018-03-17T16:10:48.280Z,1.96
2018-03-17T16:13:17.719Z,1.98
2018-03-17T16:15:46.480Z,1.86
2018-03-17T16:18:15.874Z,1.84
2018-03-17T16:20:50.820Z,1.78
2018-03-17T16:23:19.190Z,1.81
2018-03-17T16:25:48.892Z,1.96
2018-03-17T16:28:17.776Z,1.85
2018-03-17T16:30:46.626Z,1.85
2018-03-17T16:33:15.150Z,1.75
2018-03-17T16:35:43.727Z,1.57
2018-03-17T16:38:12.140Z,1.73
2018-03-17T16:40:41.103Z,1.68
2018-03-17T16:43:10.411Z,1.67
2018-03-17T16:45:40.016Z,1.70
2018-03-17T16:48:08.850Z,1.57
2018-03-17T16:50:38.240Z,1.50
2018-03-17T16:53:07.130Z,1.46
2018-03-17T16:55:35.810Z,1.52
2018-03-17T16:58:05.451Z,1.62
2018-03-17T17:00:34.135Z,1.61
2018-03-17T17:03:03.976Z,1.47
2018-03-17T17:05:34.600Z,1.60
2018-03-17T17:08:05.158Z,1.58
2018-03-17T17:10:35.992Z,1.54
2018-03-17T17:13:04.954Z,1.36
2018-03-17T17:15:35.153Z,1.42
2018-03-17T17:18:05.192Z,1.36
2018-03-17T17:20:34.336Z,1.44
2018-03-17T17:23:04.954Z,1.34
2018-03-17T17:25:34.512Z,1.36
2018-03-17T17:28:04.868Z,1.33
2018-03-17T17:30:35.700Z,1.37
2018-03-17T17:33:05.135Z,1.40
2018-03-17T17:35:34.791Z,1.33
2018-03-17T17:38:05.205Z,1.38
2018-03-17T17:40:34.143Z,1.33
2018-03-17T17:43:02.793Z,1.25
2018-03-17T17:45:31.682Z,1.22
2018-03-17T17:48:02.314Z,1.24
2018-03-17T17:50:30.857Z,1.03
2018-03-17T17:53:00.616Z,1.16
2018-03-17T17:55:29.180Z,1.29
2018-03-17T17:57:58.179Z,1.02
2018-03-17T18:00:27.085Z,1.20
2018-03-17T18:02:57.080Z,1.29
2018-03-17T18:05:25.661Z,1.16
2018-03-17T18:07:55.613Z,1.13
2018-03-17T18:10:26.136Z,1.13
2018-03-17T18:12:55.407Z,1.18
2018-03-17T18:15:25.562Z,1.18
2018-03-17T18:17:54.593Z,1.04
2018-03-17T18:20:24.041Z,1.22
2018-03-17T18:22:53.673Z,1.16
2018-03-17T18:25:23.947Z,1.18
2018-03-17T18:27:52.338Z,1.23
2018-03-17T18:30:22.128Z,1.25
2018-03-17T18:32:50.928Z,1.12
2018-03-17T18:35:19.902Z,1.01
2018-03-17T18:37:48.432Z,1.04
2018-03-17T18:40:20.581Z,0.97
2018-03-17T18:42:49.208Z,0.98
2018-03-17T18:45:19.005Z,0.94
2018-03-17T18:47:48.358Z,0.98
2018-03-17T18:50:16.941Z,0.92
2018-03-17T18:52:45.741Z,0.92
2018-03-17T18:55:15.615Z,1.01
2018-03-17T18:57:44.229Z,0.85
2018-03-17T19:00:12.863Z,0.96
2018-03-17T19:02:42.643Z,0.95
2018-03-17T19:05:11.383Z,1.02
2018-03-17T19:07:40.307Z,0.89
2018-03-17T19:10:09.023Z,0.90
2018-03-17T19:12:39.296Z,0.80
2018-03-17T19:15:08.910Z,0.91
2018-03-17T19:17:37.303Z,0.92
2018-03-17T19:20:06.691Z,0.87
2018-03-17T19:22:35.997Z,0.70
2018-03-17T19:25:04.882Z,0.73
2018-03-17T19:27:33.464Z,0.69
2018-03-17T19:30:02.756Z,0.78
2018-03-17T19:32:31.562Z,0.69
2018-03-17T19:35:00.125Z,0.66
2018-03-17T19:37:28.711Z,0.72
2018-03-17T19:39:59.138Z,0.71
2018-03-17T19:42:28.573Z,0.74
2018-03-17T19:44:57.137Z,0.61
2018-03-17T19:47:25.452Z,0.68
2018-03-17T19:49:54.754Z,0.64
2018-03-17T19:52:24.086Z,0.78
2018-03-17T19:54:53.692Z,0.87
2018-03-17T19:57:22.651Z,0.87
2018-03-17T19:59:51.112Z,0.67
2018-03-17T20:02:20.943Z,0.65
2018-03-17T20:04:50.758Z,0.64
2018-03-17T20:07:20.440Z,0.63
2018-03-17T20:09:48.944Z,0.70
2018-03-17T20:12:17.993Z,0.68
2018-03-17T20:14:47.274Z,0.59
2018-03-17T20:17:16.039Z,0.51
2018-03-17T20:19:44.743Z,0.82
2018-03-17T20:22:14.283Z,0.77
2018-03-17T20:24:42.918Z,0.91
2018-03-17T20:27:11.938Z,0.96
2018-03-17T20:29:41.856Z,0.83
2018-03-17T20:32:13.530Z,0.98
2018-03-17T20:34:42.620Z,0.75
2018-03-17T20:37:12.213Z,0.41
2018-03-17T20:39:41.051Z,0.31
2018-03-17T20:42:10.075Z,0.44
2018-03-17T20:44:38.877Z,0.67
2018-03-17T20:47:08.591Z,0.70
2018-03-17T20:49:38.043Z,0.49
2018-03-17T20:52:07.197Z,0.60
2018-03-17T20:54:36.781Z,0.49
2018-03-17T20:57:05.134Z,0.48
2018-03-17T20:59:33.674Z,0.32
2018-03-17T21:02:02.248Z,0.37
2018-03-17T21:04:30.775Z,0.47
2018-03-17T21:07:00.556Z,0.69
2018-03-17T21:09:29.834Z,0.92
2018-03-17T21:11:59.048Z,0.89
2018-03-17T21:14:27.866Z,0.62
2018-03-17T21:16:56.514Z,0.45
2018-03-17T21:19:25.373Z,0.38
2018-03-17T21:21:54.635Z,0.41
2018-03-17T21:24:23.303Z,0.26
2018-03-17T21:26:51.903Z,0.35
2018-03-17T21:29:20.668Z,0.31
2018-03-17T21:31:49.068Z,0.53
2018-03-17T21:34:17.743Z,0.38
2018-03-17T21:36:46.306Z,0.26
2018-03-17T21:39:15.861Z,0.19
2018-03-17T21:41:45.845Z,0.02
2018-03-17T21:44:15.178Z,0.03
2018-03-17T21:46:44.728Z,0.06
2018-03-17T21:49:14.012Z,-0.02
2018-03-17T21:51:42.631Z,-0.22
2018-03-17T21:54:11.175Z,-0.37
2018-03-17T21:56:40.968Z,-0.21
2018-03-17T21:59:09.502Z,-0.46
2018-03-17T22:01:38.081Z,-0.63
2018-03-17T22:04:08.300Z,-0.58
2018-03-17T22:06:37.501Z,-0.56
2018-03-17T22:09:05.992Z,-0.64
2018-03-17T22:11:34.334Z,-0.53
2018-03-17T22:14:02.820Z,-0.61
2018-03-17T22:16:31.702Z,-0.35
2018-03-17T22:19:01.298Z,-0.62
2018-03-17T22:21:30.392Z,-0.58
2018-03-17T22:23:58.661Z,-0.56
2018-03-17T22:26:27.025Z,-0.57
2018-03-17T22:28:55.340Z,-0.61
2018-03-17T22:31:24.427Z,-0.71
2018-03-17T22:33:52.692Z,-0.75
2018-03-17T22:36:20.979Z,-0.78
2018-03-17T22:38:49.266Z,-1.04
2018-03-17T22:41:18.404Z,-0.88
2018-03-17T22:43:46.676Z,-0.85
2018-03-17T22:46:14.986Z,-0.68
2018-03-17T22:48:43.260Z,-0.68
2018-03-17T22:51:11.549Z,-0.78
2018-03-17T22:53:40.614Z,-0.92
2018-03-17T22:56:09.822Z,-0.86
2018-03-17T22:58:38.109Z,-0.82
2018-03-17T23:01:06.397Z,-0.93
2018-03-17T23:03:35.457Z,-0.81
2018-03-17T23:06:03.737Z,-0.65
2018-03-17T23:08:32.083Z,-0.76
2018-03-17T23:11:00.513Z,-0.86
2018-03-17T23:13:29.623Z,-0.91
2018-03-17T23:15:58.914Z,-1.12
2018-03-17T23:18:27.292Z,-0.86
2018-03-17T23:20:56.556Z,-1.03
2018-03-17T23:23:25.613Z,-0.99
2018-03-17T23:25:53.922Z,-0.84
2018-03-17T23:28:22.233Z,-0.92
2018-03-17T23:30:51.331Z,-0.77
2018-03-17T23:33:20.514Z,-0.99
2018-03-17T23:35:49.051Z,-1.07
2018-03-17T23:38:17.359Z,-1.01
2018-03-17T23:40:45.820Z,-1.21
2018-03-17T23:43:14.158Z,-0.97
2018-03-17T23:45:42.451Z,-0.94
2018-03-17T23:48:10.853Z,-1.04
2018-03-17T23:50:39.159Z,-1.15
2018-03-17T23:53:08.404Z,-1.15
2018-03-17T23:55:37.955Z,-1.08
2018-03-17T23:58:06.246Z,-1.15
